createdAt,value
2022-07-25T00:13:05.691Z,5.80
2022-07-25T00:17:15.222Z,7.90
2022-07-25T00:33:53.125Z,7.20
2022-07-25T00:38:01.578Z,6.00
2022-07-25T00:46:25.440Z,6.80
2022-07-25T00:50:26.576Z,8.10
2022-07-25T00:54:36.122Z,5.80
2022-07-25T01:14:54.435Z,6.80
2022-07-25T01:19:02.837Z,7.70
2022-07-25T01:23:12.415Z,8.10
2022-07-25T01:35:38.981Z,7.20
2022-07-25T01:39:50.100Z,5.80
2022-07-25T01:56:08.954Z,8.00
2022-07-25T02:00:20.071Z,7.60
2022-07-25T02:04:29.909Z,6.50
2022-07-25T02:21:14.453Z,8.60
2022-07-25T02:25:24.207Z,7.00
2022-07-25T02:41:29.374Z,7.00
2022-07-25T02:45:38.337Z,9.60
2022-07-25T03:02:17.942Z,8.40
2022-07-25T03:06:30.614Z,8.20
2022-07-25T03:26:28.428Z,9.10
2022-07-25T03:30:36.586Z,7.90
2022-07-25T03:34:44.790Z,9.40
2022-07-25T03:55:22.527Z,6.30
2022-07-25T04:16:09.307Z,6.60
2022-07-25T04:20:05.626Z,8.20
2022-07-25T04:24:08.701Z,8.50
2022-07-25T04:40:42.397Z,7.40
2022-07-25T04:44:44.962Z,6.70
2022-07-25T04:52:36.399Z,7.20
2022-07-25T04:56:45.455Z,6.30
2022-07-25T05:12:53.286Z,7.80
2022-07-25T05:17:01.548Z,8.50
2022-07-25T05:21:10.019Z,10.40
2022-07-25T05:37:36.739Z,8.60
2022-07-25T05:41:37.423Z,8.50
2022-07-25T05:44:47.430Z,9.20
2022-07-25T05:48:15.516Z,8.90
2022-07-25T06:11:30.603Z,7.80
2022-07-25T06:14:39.679Z,7.70
2022-07-25T06:18:09.417Z,7.90
2022-07-25T06:21:20.150Z,8.00
2022-07-25T06:24:34.779Z,9.00
2022-07-25T06:27:45.597Z,10.40
2022-07-25T06:31:03.315Z,11.70
2022-07-25T06:33:58.238Z,9.50
2022-07-25T06:37:09.727Z,11.50
2022-07-25T06:40:07.331Z,11.40
2022-07-25T06:43:11.447Z,8.20
2022-07-25T06:45:56.390Z,6.60
2022-07-25T06:49:19.563Z,10.00
2022-07-25T06:52:20.394Z,8.20
2022-07-25T06:54:58.751Z,7.40
2022-07-25T06:58:50.740Z,12.00
2022-07-25T07:18:01.431Z,5.40
2022-07-25T07:21:49.729Z,5.60
2022-07-25T07:29:21.091Z,4.60
2022-07-25T07:33:19.930Z,4.00
2022-07-25T07:37:17.358Z,4.00
2022-07-25T07:40:27.104Z,4.80
2022-07-25T08:03:56.995Z,6.00
2022-07-25T08:07:54.886Z,6.30
2022-07-25T08:10:53.544Z,3.20
2022-07-25T08:13:34.908Z,3.80
2022-07-25T08:16:05.753Z,3.50
2022-07-25T08:18:33.813Z,6.20
2022-07-25T08:21:04.344Z,4.20
2022-07-25T08:38:51.606Z,2.90
2022-07-25T08:41:41.340Z,4.50
2022-07-25T08:44:10.098Z,3.00
2022-07-25T08:46:49.359Z,2.70
2022-07-25T08:49:17.014Z,3.00
2022-07-25T08:51:44.664Z,3.80
2022-07-25T08:54:28.454Z,3.80
2022-07-25T08:57:01.731Z,4.80
2022-07-25T08:59:34.966Z,4.40
2022-07-25T09:02:08.723Z,3.00
2022-07-25T09:04:36.333Z,2.90
2022-07-25T09:07:08.092Z,2.40
2022-07-25T09:09:46.582Z,4.60
2022-07-25T09:12:22.830Z,4.30
2022-07-25T09:15:37.496Z,4.70
2022-07-25T09:18:43.366Z,6.70
2022-07-25T09:21:14.602Z,3.50
2022-07-25T09:24:09.382Z,3.30
2022-07-25T09:27:08.828Z,3.30
2022-07-25T09:29:39.801Z,3.80
2022-07-25T09:32:46.118Z,4.50
2022-07-25T09:35:16.169Z,5.20
2022-07-25T09:37:43.314Z,3.10
2022-07-25T09:40:19.919Z,3.00
2022-07-25T09:42:52.533Z,3.00
2022-07-25T09:45:29.616Z,4.10
2022-07-25T09:49:30.392Z,2.60
2022-07-25T09:52:49.207Z,5.00
2022-07-25T09:55:36.685Z,4.50
2022-07-25T09:58:04.112Z,3.30
2022-07-25T10:00:33.048Z,2.40
2022-07-25T10:04:42.006Z,3.70
2022-07-25T10:08:32.896Z,5.30
2022-07-25T10:11:31.612Z,2.90
2022-07-25T10:14:20.776Z,3.30
2022-07-25T10:17:33.985Z,5.30
2022-07-25T10:20:10.479Z,2.90
2022-07-25T10:24:05.278Z,2.90
2022-07-25T10:27:15.267Z,3.50
2022-07-25T10:30:11.308Z,3.80
2022-07-25T10:34:14.073Z,5.30
2022-07-25T10:38:35.070Z,2.30
2022-07-25T10:42:43.222Z,3.60
2022-07-25T10:53:55.755Z,3.70
2022-07-25T11:16:43.427Z,3.10
2022-07-25T11:20:39.849Z,4.60
2022-07-25T11:24:08.346Z,3.60
2022-07-25T11:27:37.248Z,4.10
2022-07-25T11:31:20.353Z,2.90
2022-07-25T11:33:58.920Z,4.30
2022-07-25T11:36:43.056Z,3.80
2022-07-25T11:39:27.980Z,3.50
2022-07-25T11:42:09.904Z,4.50
2022-07-25T11:44:53.235Z,2.60
2022-07-25T11:47:33.381Z,2.40
2022-07-25T11:50:04.361Z,3.40
2022-07-25T11:52:38.562Z,2.80
2022-07-25T11:55:18.737Z,3.50
2022-07-25T11:58:59.393Z,3.20
2022-07-25T12:02:30.335Z,3.00
2022-07-25T12:06:07.439Z,3.80
2022-07-25T12:09:54.929Z,3.30
2022-07-25T12:12:25.294Z,2.10
2022-07-25T12:14:58.182Z,2.80
2022-07-25T12:17:25.261Z,2.30
2022-07-25T12:19:52.312Z,1.90
2022-07-25T12:22:22.313Z,2.80
2022-07-25T12:24:52.890Z,2.30
2022-07-25T12:27:20.093Z,2.30
2022-07-25T12:29:47.736Z,3.00
2022-07-25T12:32:15.168Z,1.90
2022-07-25T12:34:44.800Z,2.70
2022-07-25T12:37:11.775Z,1.90
2022-07-25T12:40:59.887Z,3.20
2022-07-25T12:44:49.875Z,2.40
2022-07-25T13:29:12.495Z,1.20
2022-07-25T13:31:41.478Z,3.10
2022-07-25T13:34:09.391Z,2.20
2022-07-25T13:36:39.682Z,1.10
2022-07-25T13:39:07.234Z,1.10
2022-07-25T13:41:34.755Z,1.30
2022-07-25T13:44:01.911Z,1.70
2022-07-25T13:46:29.302Z,1.60
2022-07-25T13:48:56.744Z,2.70
2022-07-25T13:51:24.120Z,2.20
2022-07-25T13:53:51.268Z,2.20
2022-07-25T13:56:18.598Z,3.40
2022-07-25T13:58:48.031Z,2.40
2022-07-25T14:01:16.012Z,2.20
2022-07-25T14:04:45.920Z,1.70
2022-07-25T14:07:37.022Z,2.00
2022-07-25T14:10:12.990Z,1.90
2022-07-25T14:13:23.832Z,2.60
2022-07-25T14:16:00.207Z,2.20
2022-07-25T14:18:27.819Z,2.90
2022-07-25T14:22:15.734Z,3.00
2022-07-25T14:46:02.262Z,1.40
2022-07-25T14:48:44.456Z,1.70
2022-07-25T14:51:24.092Z,1.50
2022-07-25T14:53:53.310Z,2.50
2022-07-25T14:56:44.399Z,2.80
2022-07-25T14:59:52.109Z,1.60
2022-07-25T15:02:57.242Z,1.40
2022-07-25T15:05:44.477Z,2.40
2022-07-25T15:08:17.249Z,4.80
2022-07-25T15:10:44.584Z,2.50
2022-07-25T15:13:37.920Z,2.20
2022-07-25T15:16:31.227Z,2.70
2022-07-25T15:19:17.434Z,3.20
2022-07-25T15:22:43.630Z,2.70
2022-07-25T15:26:06.320Z,1.70
2022-07-25T15:28:38.018Z,3.20
2022-07-25T15:31:06.735Z,2.10
2022-07-25T15:34:05.850Z,2.10
2022-07-25T15:37:04.949Z,3.80
2022-07-25T15:40:41.388Z,3.20
2022-07-25T16:16:06.061Z,2.50
2022-07-25T16:18:33.394Z,3.60
2022-07-25T16:21:03.648Z,3.70
2022-07-25T16:23:36.062Z,2.80
2022-07-25T16:26:08.868Z,3.20
2022-07-25T16:28:37.270Z,4.10
2022-07-25T16:31:04.600Z,5.00
2022-07-25T16:33:32.446Z,3.60
2022-07-25T16:35:59.718Z,4.30
2022-07-25T16:38:27.607Z,3.70
2022-07-25T16:40:55.196Z,3.40
2022-07-25T16:44:43.496Z,4.10
2022-07-25T16:48:33.074Z,4.40
2022-07-25T16:51:20.812Z,4.20
2022-07-25T16:53:47.905Z,4.50
2022-07-25T16:56:16.999Z,5.10
2022-07-25T16:58:44.200Z,5.30
2022-07-25T17:01:11.853Z,3.80
2022-07-25T17:03:39.209Z,4.80
2022-07-25T17:06:07.519Z,4.00
2022-07-25T17:08:35.853Z,3.30
2022-07-25T17:11:04.587Z,4.10
2022-07-25T17:13:32.028Z,4.80
2022-07-25T17:15:59.465Z,4.10
2022-07-25T17:18:26.631Z,3.10
2022-07-25T17:20:54.802Z,3.20
2022-07-25T17:23:28.075Z,4.20
2022-07-25T17:25:55.977Z,3.80
2022-07-25T17:29:02.048Z,3.90
2022-07-25T17:31:43.670Z,3.90
2022-07-25T17:34:11.314Z,3.80
2022-07-25T17:37:03.017Z,5.90
2022-07-25T17:39:41.208Z,3.90
2022-07-25T17:42:24.017Z,4.30
2022-07-25T17:45:24.172Z,3.80
2022-07-25T17:48:18.684Z,3.60
2022-07-25T17:50:54.492Z,5.00
2022-07-25T17:53:44.756Z,3.50
2022-07-25T17:56:11.857Z,6.10
2022-07-25T17:58:39.085Z,10.70
2022-07-25T18:01:10.330Z,9.70
2022-07-25T18:03:38.299Z,8.00
2022-07-25T18:06:05.781Z,6.70
2022-07-25T18:08:35.320Z,7.90
2022-07-25T18:11:03.722Z,6.50
2022-07-25T18:13:30.904Z,7.60
2022-07-25T18:16:58.578Z,10.30
2022-07-25T18:19:26.733Z,12.80
2022-07-25T18:22:03.406Z,6.40
2022-07-25T18:25:11.742Z,8.10
2022-07-25T18:27:56.790Z,9.30
2022-07-25T18:31:06.965Z,9.10
2022-07-25T18:33:47.925Z,6.40
2022-07-25T18:36:40.907Z,5.50
2022-07-25T18:39:37.205Z,4.40
2022-07-25T18:42:33.955Z,4.70
2022-07-25T18:45:01.250Z,4.30
2022-07-25T18:48:18.969Z,6.10
2022-07-25T18:51:29.409Z,4.10
2022-07-25T18:53:56.583Z,5.40
2022-07-25T18:57:24.543Z,4.40
2022-07-25T19:00:07.073Z,5.40
2022-07-25T19:04:16.006Z,6.30
2022-07-25T19:07:39.863Z,8.10
2022-07-25T19:10:50.737Z,8.70
2022-07-25T19:14:18.708Z,6.60
2022-07-25T19:16:46.558Z,6.10
2022-07-25T19:19:18.452Z,5.20
2022-07-25T19:21:49.085Z,5.10
2022-07-25T19:24:17.170Z,4.80
2022-07-25T19:26:48.055Z,5.40
2022-07-25T19:29:30.744Z,6.70
2022-07-25T19:32:01.039Z,8.90
2022-07-25T19:35:28.811Z,5.70
2022-07-25T19:38:56.393Z,8.10
2022-07-25T19:41:30.824Z,4.20
2022-07-25T19:45:07.586Z,7.10
2022-07-25T19:49:17.099Z,7.30
2022-07-25T19:52:14.902Z,12.10
2022-07-25T19:55:00.583Z,11.30
2022-07-25T20:01:21.105Z,19.40
2022-07-25T20:04:05.768Z,29.20
2022-07-25T20:06:45.174Z,23.90
2022-07-25T20:09:15.262Z,24.80
2022-07-25T20:11:42.753Z,30.30
2022-07-25T20:14:10.959Z,26.60
2022-07-25T20:16:39.019Z,28.70
2022-07-25T20:19:09.279Z,29.20
2022-07-25T20:21:39.175Z,16.70
2022-07-25T20:24:08.212Z,10.40
2022-07-25T20:26:38.870Z,11.40
2022-07-25T20:29:07.970Z,9.80
2022-07-25T20:31:50.616Z,9.50
2022-07-25T20:34:19.396Z,15.20
2022-07-25T20:36:55.630Z,14.50
2022-07-25T20:39:37.618Z,11.10
2022-07-25T20:43:24.293Z,16.60
2022-07-25T20:46:55.306Z,18.90
2022-07-25T20:49:32.579Z,15.10
2022-07-25T20:52:30.313Z,10.40
2022-07-25T20:55:35.844Z,10.20
2022-07-25T20:58:35.474Z,13.20
2022-07-25T21:01:31.798Z,15.60
2022-07-25T21:04:54.506Z,11.80
2022-07-25T21:08:38.945Z,10.60
2022-07-25T21:11:32.421Z,11.50
2022-07-25T21:14:31.616Z,12.20
2022-07-25T21:18:40.877Z,9.60
2022-07-25T21:39:25.337Z,9.60
2022-07-25T21:43:14.898Z,7.60
2022-07-25T21:47:24.598Z,11.90
2022-07-25T21:59:54.565Z,9.10
2022-07-25T22:04:10.365Z,7.60
2022-07-25T22:20:46.508Z,6.80
2022-07-25T22:29:01.969Z,7.80
2022-07-25T22:33:11.885Z,6.90
2022-07-25T22:49:42.662Z,8.00
2022-07-25T22:53:50.731Z,6.90
2022-07-25T23:10:33.843Z,6.30
2022-07-25T23:14:42.268Z,6.30
2022-07-25T23:35:20.501Z,9.10
2022-07-25T23:39:18.599Z,7.70
2022-07-25T23:42:49.417Z,7.20
2022-07-25T23:47:01.607Z,6.70
